Time;durP1;ratioP1;P1;durP2;ratioP2;P2;SDS_P1;SDS_P2;PMS_P1;PMS_P2;Temp;Humidity;BMP_temperature;BMP_pressure;BME280_temperature;BME280_humidity;BME280_pressure;Samples;Min_cycle;Max_cycle;Signal;HPM_P1;HPM_P2
2022/03/17 00:01:23;;;;;;;27.00;15.68;;;14.00;83.60;;;;;;5094664;28;20438;-65
2022/03/17 00:03:49;;;;;;;33.92;17.30;;;14.00;83.60;;;;;;5094548;28;20032;-64
2022/03/17 00:06:15;;;;;;;27.10;17.08;;;14.00;83.80;;;;;;5094336;28;20397;-64
2022/03/17 00:08:41;;;;;;;27.33;17.23;;;14.00;83.90;;;;;;5094308;28;20036;-63
2022/03/17 00:11:07;;;;;;;26.27;17.13;;;14.00;84.10;;;;;;5094419;28;20028;-64
2022/03/17 00:13:32;;;;;;;26.55;16.67;;;14.10;83.70;;;;;;5094407;28;20031;-65
2022/03/17 00:15:58;;;;;;;31.50;18.55;;;14.10;83.70;;;;;;5094296;28;20024;-64
2022/03/17 00:18:27;;;;;;;31.20;18.80;;;14.10;83.50;;;;;;5094199;28;20031;-64
2022/03/17 00:20:53;;;;;;;29.05;18.20;;;14.00;83.70;;;;;;5094260;28;20055;-64
2022/03/17 00:23:18;;;;;;;29.52;19.50;;;14.00;83.60;;;;;;5092946;28;20063;-63
2022/03/17 00:25:44;;;;;;;31.85;19.52;;;14.00;83.80;;;;;;5094113;28;20514;-64
2022/03/17 00:28:10;;;;;;;29.98;18.15;;;14.00;83.50;;;;;;5094029;28;20393;-67
2022/03/17 00:30:36;;;;;;;26.38;18.33;;;14.00;83.80;;;;;;5092912;28;20430;-64
2022/03/17 00:33:02;;;;;;;33.58;19.13;;;14.00;83.80;;;;;;5093757;28;20055;-65
2022/03/17 00:35:38;;;;;;;31.23;19.33;;;14.00;83.60;;;;;;5093168;28;20101;-66
2022/03/17 00:38:08;;;;;;;34.15;21.20;;;14.00;84.00;;;;;;5093780;28;20036;-63
2022/03/17 00:40:36;;;;;;;29.15;20.63;;;14.00;83.50;;;;;;5093719;28;20042;-64
2022/03/17 00:43:06;;;;;;;34.75;21.35;;;13.90;83.50;;;;;;5087829;28;20387;-64
2022/03/17 00:45:32;;;;;;;31.50;20.60;;;13.90;84.40;;;;;;5073316;28;20013;-65
2022/03/17 00:47:58;;;;;;;33.85;22.95;;;13.80;83.70;;;;;;5073283;28;20028;-64
2022/03/17 00:50:24;;;;;;;33.78;21.73;;;13.80;84.10;;;;;;5073316;28;20088;-63
2022/03/17 00:52:51;;;;;;;34.30;22.23;;;13.80;84.00;;;;;;5073389;28;20032;-63
2022/03/17 00:55:17;;;;;;;28.67;21.10;;;13.80;84.10;;;;;;5073174;28;20024;-63
2022/03/17 00:57:43;;;;;;;28.90;20.23;;;13.70;84.20;;;;;;5073265;28;20202;-64
2022/03/17 01:00:14;;;;;;;28.27;18.92;;;13.60;84.50;;;;;;5072937;28;20131;-64
2022/03/17 01:02:41;;;;;;;25.20;17.88;;;13.50;85.40;;;;;;5072922;28;20033;-64
2022/03/17 01:05:07;;;;;;;23.92;17.50;;;13.50;86.20;;;;;;5073041;28;20036;-64
2022/03/17 01:07:34;;;;;;;26.40;17.27;;;13.50;86.40;;;;;;5073055;28;20067;-64
2022/03/17 01:10:00;;;;;;;33.38;18.83;;;13.60;85.40;;;;;;5073012;28;20074;-65
2022/03/17 01:12:25;;;;;;;31.55;18.70;;;13.60;85.70;;;;;;5073325;28;20029;-64
2022/03/17 01:14:51;;;;;;;27.25;18.63;;;13.60;85.60;;;;;;5073082;28;20359;-64
2022/03/17 01:17:17;;;;;;;26.77;18.90;;;13.60;86.00;;;;;;5073009;28;20025;-64
2022/03/17 01:19:42;;;;;;;28.35;19.02;;;13.60;86.00;;;;;;5072954;28;20034;-65
2022/03/17 01:22:08;;;;;;;27.63;19.52;;;13.50;85.70;;;;;;5071487;28;20048;-63
2022/03/17 01:24:34;;;;;;;24.40;17.83;;;13.50;86.00;;;;;;5072955;28;20071;-64
2022/03/17 01:26:59;;;;;;;25.60;18.52;;;13.50;86.00;;;;;;5072949;28;20484;-64
2022/03/17 01:29:26;;;;;;;26.25;20.00;;;13.40;85.80;;;;;;5072938;28;20034;-65
2022/03/17 01:31:52;;;;;;;23.83;19.83;;;13.50;85.70;;;;;;5071749;28;20454;-64
2022/03/17 01:34:18;;;;;;;33.20;21.15;;;13.40;85.50;;;;;;5072902;28;20044;-64
2022/03/17 01:36:44;;;;;;;28.35;20.70;;;13.40;85.40;;;;;;5072936;28;20029;-65
2022/03/17 01:39:10;;;;;;;27.77;19.67;;;13.30;84.90;;;;;;5071522;28;20115;-64
2022/03/17 01:41:36;;;;;;;26.35;19.75;;;13.30;84.80;;;;;;5072916;28;20052;-63
2022/03/17 01:44:02;;;;;;;29.50;20.45;;;13.30;84.90;;;;;;5072730;28;20032;-65
2022/03/17 01:46:28;;;;;;;27.88;19.20;;;13.20;85.00;;;;;;5075452;28;20021;-64
2022/03/17 01:48:54;;;;;;;28.95;19.58;;;13.20;84.70;;;;;;5076698;28;20020;-65
2022/03/17 01:51:19;;;;;;;25.90;19.30;;;13.20;85.10;;;;;;5076591;28;20477;-64
2022/03/17 01:53:45;;;;;;;28.23;19.55;;;13.20;85.30;;;;;;5076688;28;20035;-65
2022/03/17 01:56:12;;;;;;;31.52;20.80;;;13.20;84.70;;;;;;5076688;28;20028;-63
2022/03/17 01:58:37;;;;;;;26.15;18.35;;;13.20;84.60;;;;;;5076338;28;20040;-64
2022/03/17 02:01:03;;;;;;;30.00;19.27;;;13.10;84.80;;;;;;5076532;28;20059;-65
2022/03/17 02:03:29;;;;;;;28.77;18.17;;;13.10;85.40;;;;;;5076498;28;20362;-64
2022/03/17 02:05:55;;;;;;;25.63;18.33;;;13.00;85.80;;;;;;5076439;28;20025;-67
2022/03/17 02:08:21;;;;;;;25.98;18.50;;;13.10;86.10;;;;;;5076380;28;20071;-65
2022/03/17 02:13:32;;;;;;;25.15;18.58;;;13.00;86.20;;;;;;5076679;28;20059;-64
2022/03/17 02:16:02;;;;;;;27.17;18.83;;;12.90;87.00;;;;;;5076277;28;20458;-65
2022/03/17 02:18:28;;;;;;;26.73;18.73;;;13.00;86.90;;;;;;5076579;28;20374;-63
2022/03/17 02:20:57;;;;;;;25.20;18.85;;;13.00;86.50;;;;;;5076225;28;20013;-66
2022/03/17 02:26:07;;;;;;;25.60;19.73;;;13.10;86.20;;;;;;5076403;28;20071;-64
2022/03/17 02:28:33;;;;;;;25.98;19.35;;;13.00;86.60;;;;;;5076080;28;20477;-64
2022/03/17 02:31:00;;;;;;;28.30;19.48;;;12.90;86.80;;;;;;5076000;28;20393;-63
2022/03/17 02:33:26;;;;;;;23.00;17.92;;;12.90;86.50;;;;;;5075899;28;20413;-64
2022/03/17 02:35:53;;;;;;;24.15;18.33;;;12.90;86.20;;;;;;5075953;28;20024;-63
2022/03/17 02:38:20;;;;;;;25.30;18.30;;;12.90;86.60;;;;;;5075785;28;20033;-64
2022/03/17 02:40:50;;;;;;;28.38;19.85;;;12.90;86.30;;;;;;5075731;28;20032;-64
2022/03/17 02:43:18;;;;;;;26.38;18.80;;;12.90;86.40;;;;;;5075511;28;20028;-63
2022/03/17 02:45:45;;;;;;;22.17;18.40;;;12.90;85.90;;;;;;5074479;28;20032;-63
2022/03/17 02:48:11;;;;;;;31.55;19.27;;;12.90;86.10;;;;;;5075504;28;20017;-64
2022/03/17 02:50:37;;;;;;;24.85;20.00;;;13.00;85.90;;;;;;5075096;28;20029;-64
2022/03/17 02:53:10;;;;;;;25.70;19.55;;;13.00;85.70;;;;;;5074205;28;20546;-63
2022/03/17 02:55:38;;;;;;;28.10;19.73;;;12.90;86.00;;;;;;5075152;28;20147;-63
2022/03/17 02:58:05;;;;;;;36.33;20.23;;;12.90;86.30;;;;;;5073736;28;20040;-63
2022/03/17 03:00:33;;;;;;;29.23;19.67;;;12.90;86.80;;;;;;5075410;28;20522;-63
2022/03/17 03:02:59;;;;;;;25.23;19.30;;;12.90;87.20;;;;;;5075298;28;20124;-63
2022/03/17 03:05:26;;;;;;;26.20;18.88;;;12.80;86.90;;;;;;5075371;28;20027;-64
2022/03/17 03:07:53;;;;;;;26.95;19.83;;;12.70;87.20;;;;;;5075380;28;20119;-64
2022/03/17 03:10:20;;;;;;;29.38;20.35;;;12.70;87.80;;;;;;5075082;28;20525;-68
2022/03/17 03:12:46;;;;;;;25.48;19.75;;;12.70;87.90;;;;;;5075193;28;20017;-63
2022/03/17 03:15:13;;;;;;;25.48;19.88;;;12.70;88.50;;;;;;5075218;28;20064;-64
2022/03/17 03:17:39;;;;;;;23.13;18.85;;;12.70;88.60;;;;;;5075311;28;20021;-64
2022/03/17 03:20:06;;;;;;;26.55;19.52;;;12.70;88.40;;;;;;5075068;28;20534;-65
2022/03/17 03:22:39;;;;;;;27.50;20.05;;;12.70;88.20;;;;;;5074630;28;20024;-64
2022/03/17 03:25:06;;;;;;;25.15;19.30;;;12.60;88.80;;;;;;5073531;28;20066;-64
2022/03/17 03:27:32;;;;;;;31.60;19.60;;;12.60;89.60;;;;;;5075057;28;20017;-64
2022/03/17 03:29:58;;;;;;;26.85;18.60;;;12.70;89.00;;;;;;5074734;28;20480;-64
2022/03/17 03:32:25;;;;;;;24.35;18.48;;;12.70;88.80;;;;;;5074924;28;20020;-64
2022/03/17 03:34:51;;;;;;;25.00;18.20;;;12.70;89.00;;;;;;5074827;28;20028;-64
2022/03/17 03:37:25;;;;;;;25.58;18.98;;;12.60;89.20;;;;;;5074690;28;20024;-64
2022/03/17 03:39:52;;;;;;;23.00;18.45;;;12.60;88.90;;;;;;5074850;28;20036;-68
2022/03/17 03:42:19;;;;;;;25.17;18.08;;;12.50;89.20;;;;;;5074601;28;20024;-64
2022/03/17 03:44:45;;;;;;;24.15;18.17;;;12.50;89.50;;;;;;5074492;28;20055;-64
2022/03/17 03:47:11;;;;;;;26.20;17.98;;;12.50;89.60;;;;;;5073065;28;20418;-64
2022/03/17 03:49:39;;;;;;;25.27;18.23;;;12.50;89.50;;;;;;5074367;28;20039;-65
2022/03/17 03:52:07;;;;;;;25.40;18.92;;;12.50;89.80;;;;;;5074461;28;20035;-67
2022/03/17 03:54:34;;;;;;;27.63;19.33;;;12.40;89.90;;;;;;5074704;28;20017;-64
2022/03/17 03:57:00;;;;;;;23.02;16.88;;;12.50;90.00;;;;;;5074647;28;20029;-65
2022/03/17 03:59:29;;;;;;;25.08;18.05;;;12.50;90.00;;;;;;5072860;28;20060;-63
2022/03/17 04:01:57;;;;;;;24.45;17.83;;;12.50;90.20;;;;;;5074272;28;20032;-64
2022/03/17 04:04:24;;;;;;;22.13;17.15;;;12.50;90.10;;;;;;5074148;28;20044;-65
2022/03/17 04:06:58;;;;;;;25.48;17.73;;;12.50;90.10;;;;;;5074160;28;20029;-65
2022/03/17 04:09:27;;;;;;;23.73;16.92;;;12.50;90.10;;;;;;5073104;28;20473;-63
2022/03/17 04:11:54;;;;;;;31.83;18.98;;;12.50;90.10;;;;;;5074049;28;20020;-64
2022/03/17 04:14:20;;;;;;;25.15;17.80;;;12.50;90.10;;;;;;5073920;28;20021;-64
2022/03/17 04:16:46;;;;;;;27.33;18.30;;;12.40;90.00;;;;;;5073981;28;20024;-64
2022/03/17 04:19:12;;;;;;;23.00;17.25;;;12.40;90.10;;;;;;5073892;28;20523;-65
2022/03/17 04:21:39;;;;;;;21.42;17.83;;;12.40;90.20;;;;;;5073845;28;20020;-64
2022/03/17 04:24:06;;;;;;;27.77;19.45;;;12.50;90.30;;;;;;5073757;28;20036;-64
2022/03/17 04:26:32;;;;;;;26.38;17.33;;;12.40;90.00;;;;;;5073833;28;20028;-64
2022/03/17 04:28:57;;;;;;;24.42;18.50;;;12.40;90.40;;;;;;5073617;28;20032;-64
2022/03/17 04:31:23;;;;;;;24.95;18.08;;;12.40;90.40;;;;;;5073765;28;20017;-64
2022/03/17 04:33:50;;;;;;;24.17;18.27;;;12.40;90.30;;;;;;5073657;28;20056;-64
2022/03/17 04:36:16;;;;;;;24.65;18.30;;;12.30;90.50;;;;;;5073516;28;20016;-63
2022/03/17 04:38:42;;;;;;;22.85;17.27;;;12.40;90.40;;;;;;5073578;28;20092;-64
2022/03/17 04:41:09;;;;;;;31.77;17.85;;;12.50;90.30;;;;;;5073370;28;20111;-63
2022/03/17 04:43:36;;;;;;;23.85;17.73;;;12.40;90.40;;;;;;5073434;28;20029;-66
2022/03/17 04:46:02;;;;;;;26.35;17.80;;;12.40;90.40;;;;;;5073255;28;20036;-64
2022/03/17 04:48:28;;;;;;;28.05;18.15;;;12.40;90.50;;;;;;5073000;28;20024;-63
2022/03/17 04:50:54;;;;;;;23.60;17.35;;;12.40;90.50;;;;;;5073172;28;20485;-64
2022/03/17 04:53:30;;;;;;;26.13;18.67;;;12.40;90.50;;;;;;5073344;28;20442;-63
2022/03/17 04:56:04;;;;;;;23.95;18.38;;;12.40;90.10;;;;;;5073236;28;20025;-63
2022/03/17 04:58:31;;;;;;;27.52;18.17;;;12.40;90.00;;;;;;5072762;28;20090;-64
2022/03/17 05:00:58;;;;;;;25.50;16.98;;;12.50;90.40;;;;;;5072954;28;20158;-64
2022/03/17 05:03:24;;;;;;;25.25;16.33;;;12.50;90.30;;;;;;5072724;28;20119;-66
2022/03/17 05:05:52;;;;;;;29.13;17.38;;;12.50;90.20;;;;;;5071652;28;20102;-64
2022/03/17 05:08:18;;;;;;;22.27;17.17;;;12.50;90.00;;;;;;5072924;28;20588;-64
2022/03/17 05:10:44;;;;;;;22.92;16.50;;;12.50;90.20;;;;;;5071814;28;20029;-64
2022/03/17 05:13:11;;;;;;;25.08;16.80;;;12.50;90.30;;;;;;5072919;28;20025;-64
2022/03/17 05:15:38;;;;;;;32.42;17.73;;;12.50;90.30;;;;;;5072846;28;20107;-64
2022/03/17 05:18:06;;;;;;;26.40;16.95;;;12.50;90.20;;;;;;5072720;28;20418;-64
2022/03/17 05:20:36;;;;;;;24.55;17.27;;;12.50;90.30;;;;;;5072750;28;20108;-64
2022/03/17 05:23:04;;;;;;;25.23;16.42;;;12.40;90.20;;;;;;5072845;28;20042;-63
2022/03/17 05:25:32;;;;;;;23.27;14.95;;;12.40;90.40;;;;;;5073238;28;20123;-79
2022/03/17 05:27:59;;;;;;;28.15;15.30;;;12.40;90.30;;;;;;5074062;28;20024;-79
2022/03/17 05:30:27;;;;;;;21.23;14.63;;;12.40;90.30;;;;;;5074209;28;20393;-77
2022/03/17 05:32:53;;;;;;;20.38;15.07;;;12.40;90.30;;;;;;5074365;28;20422;-82
2022/03/17 05:35:20;;;;;;;22.83;15.00;;;12.30;90.30;;;;;;5073414;28;20103;-64
2022/03/17 05:37:45;;;;;;;22.70;14.48;;;12.30;90.30;;;;;;5072562;28;20021;-64
2022/03/17 05:40:15;;;;;;;23.52;14.65;;;12.30;90.30;;;;;;5072375;28;20046;-63
2022/03/17 05:42:43;;;;;;;20.08;13.60;;;12.30;90.50;;;;;;5072543;28;20107;-63
2022/03/17 05:45:09;;;;;;;23.45;13.68;;;12.30;90.10;;;;;;5072653;28;20032;-64
2022/03/17 05:47:41;;;;;;;25.70;15.02;;;12.30;90.10;;;;;;5072764;28;20461;-71
2022/03/17 05:50:10;;;;;;;19.90;13.75;;;12.30;90.10;;;;;;5072901;28;20024;-72
2022/03/17 05:52:53;;;;;;;22.30;14.50;;;12.30;90.10;;;;;;5073369;28;20037;-76
2022/03/17 05:55:21;;;;;;;24.85;15.07;;;12.40;90.10;;;;;;5071630;28;20032;-81
2022/03/17 05:57:49;;;;;;;18.45;14.55;;;12.30;90.10;;;;;;5073034;28;20028;-80
2022/03/17 06:00:17;;;;;;;24.35;14.52;;;12.30;90.10;;;;;;5071429;28;20076;-72
2022/03/17 06:02:45;;;;;;;26.10;15.68;;;12.30;90.20;;;;;;5072251;28;20034;-78
2022/03/17 06:05:12;;;;;;;22.50;14.88;;;12.30;90.10;;;;;;5073502;28;20480;-77
2022/03/17 06:07:38;;;;;;;22.45;15.68;;;12.30;90.30;;;;;;5073423;28;20016;-73
2022/03/17 06:10:06;;;;;;;19.27;14.13;;;12.40;90.40;;;;;;5074407;28;20135;-75
2022/03/17 06:12:32;;;;;;;20.58;15.32;;;12.40;90.50;;;;;;5076820;28;20527;-80
2022/03/17 06:14:58;;;;;;;28.45;15.38;;;12.40;90.30;;;;;;5075827;28;20036;-74
2022/03/17 06:17:35;;;;;;;23.77;15.30;;;12.50;90.50;;;;;;5074365;28;20047;-73
2022/03/17 06:20:01;;;;;;;21.10;15.27;;;12.50;90.40;;;;;;5083655;28;20453;-76
2022/03/17 06:22:27;;;;;;;24.25;15.50;;;12.50;90.40;;;;;;5095304;28;20465;-64
2022/03/17 06:24:52;;;;;;;25.48;14.82;;;12.50;90.30;;;;;;5092559;28;20032;-64
2022/03/17 06:27:22;;;;;;;20.48;14.85;;;12.50;90.20;;;;;;5092653;28;20480;-82
2022/03/17 06:29:50;;;;;;;23.80;14.65;;;12.50;90.10;;;;;;5093901;28;20044;-80
2022/03/17 06:32:16;;;;;;;19.90;13.40;;;12.50;90.00;;;;;;5094421;28;20052;-79
2022/03/17 06:34:43;;;;;;;21.52;14.45;;;12.60;90.20;;;;;;5096307;28;20031;-68
2022/03/17 06:37:09;;;;;;;25.48;13.75;;;12.60;90.10;;;;;;5092510;28;20032;-65
2022/03/17 06:39:35;;;;;;;20.38;13.77;;;12.60;90.10;;;;;;5097093;28;20020;-72
2022/03/17 06:42:00;;;;;;;18.90;13.25;;;12.60;90.00;;;;;;5097086;28;20366;-73
2022/03/17 06:44:26;;;;;;;19.55;12.75;;;12.70;89.90;;;;;;5096334;28;20040;-66
2022/03/17 06:46:52;;;;;;;21.17;12.68;;;12.80;89.80;;;;;;5095856;28;20484;-66
2022/03/17 06:49:17;;;;;;;26.40;13.55;;;12.80;89.30;;;;;;5095466;28;20044;-65
2022/03/17 06:51:44;;;;;;;23.98;12.63;;;12.90;89.20;;;;;;5086718;28;20017;-70
2022/03/17 06:54:14;;;;;;;20.08;13.38;;;12.90;88.70;;;;;;5084839;28;20032;-83
2022/03/17 06:56:41;;;;;;;23.70;13.43;;;13.00;88.90;;;;;;5077434;28;20037;-79
2022/03/17 06:59:07;;;;;;;18.15;12.88;;;13.00;88.70;;;;;;5080596;28;20041;-73
2022/03/17 07:01:38;;;;;;;21.55;12.35;;;13.00;88.60;;;;;;5078356;28;20043;-81
2022/03/17 07:04:06;;;;;;;20.08;12.35;;;13.00;88.20;;;;;;5079724;28;20087;-83
2022/03/17 07:06:32;;;;;;;24.88;13.95;;;13.10;87.80;;;;;;5082166;28;20490;-84
2022/03/17 07:09:01;;;;;;;18.88;13.40;;;13.00;87.80;;;;;;5076936;28;20032;-77
2022/03/17 07:11:26;;;;;;;18.77;12.00;;;13.10;87.60;;;;;;5076454;28;20090;-66
2022/03/17 07:13:52;;;;;;;22.15;12.75;;;13.10;87.70;;;;;;5074677;28;20062;-74
2022/03/17 07:16:18;;;;;;;19.38;13.82;;;13.10;87.60;;;;;;5074938;28;20024;-68
2022/03/17 07:18:46;;;;;;;17.75;12.70;;;13.20;87.10;;;;;;5074753;28;20032;-66
2022/03/17 07:21:28;;;;;;;21.13;13.32;;;13.20;86.80;;;;;;5074973;28;20116;-80
2022/03/17 07:23:56;;;;;;;23.50;12.85;;;13.20;86.30;;;;;;5074330;28;20079;-83
2022/03/17 07:26:21;;;;;;;18.50;12.80;;;13.30;86.20;;;;;;5073681;28;20025;-78
2022/03/17 07:28:48;;;;;;;20.20;13.15;;;13.40;85.60;;;;;;5074580;28;20135;-81
2022/03/17 07:31:15;;;;;;;18.17;12.55;;;13.40;84.70;;;;;;5074969;28;20078;-81
2022/03/17 07:33:42;;;;;;;21.75;13.90;;;13.40;84.10;;;;;;5074849;28;20033;-81
2022/03/17 07:36:07;;;;;;;21.35;14.35;;;13.50;83.70;;;;;;5073196;28;20507;-81
2022/03/17 07:38:33;;;;;;;19.38;13.50;;;13.50;83.20;;;;;;5073238;28;20032;-71
2022/03/17 07:40:59;;;;;;;24.98;15.38;;;13.60;83.20;;;;;;5074372;28;20417;-71
2022/03/17 07:43:25;;;;;;;29.02;14.68;;;13.70;82.40;;;;;;5073935;28;20025;-66
2022/03/17 07:45:53;;;;;;;22.52;14.63;;;13.70;81.90;;;;;;5074058;28;20031;-64
2022/03/17 07:48:18;;;;;;;22.35;13.75;;;13.70;81.60;;;;;;5073859;28;20039;-67
2022/03/17 07:50:44;;;;;;;21.77;13.30;;;13.80;81.60;;;;;;5073786;28;20028;-65
2022/03/17 07:53:10;;;;;;;18.23;13.52;;;13.80;81.50;;;;;;5073815;28;20032;-66
2022/03/17 07:55:38;;;;;;;28.17;15.20;;;13.90;81.00;;;;;;5073894;28;20431;-83
2022/03/17 07:58:11;;;;;;;23.75;14.23;;;13.90;80.80;;;;;;5074046;28;20074;-78
2022/03/17 08:00:37;;;;;;;;;;;14.00;80.60;;;;;;5073892;28;20048;-65
2022/03/17 08:03:06;;;;;;;23.27;13.77;;;14.10;80.70;;;;;;5073713;28;19912;-73
2022/03/17 08:05:32;;;;;;;21.98;14.25;;;14.20;79.80;;;;;;5073750;28;20489;-73
2022/03/17 08:08:00;;;;;;;24.40;13.20;;;14.20;79.30;;;;;;5073736;28;20052;-71
2022/03/17 08:10:30;;;;;;;20.40;13.15;;;14.30;79.00;;;;;;5073612;28;20024;-66
2022/03/17 08:12:55;;;;;;;24.10;14.00;;;14.30;78.70;;;;;;5073671;28;20024;-65
2022/03/17 08:15:24;;;;;;;23.98;13.48;;;14.40;78.30;;;;;;5074186;28;20166;-66
2022/03/17 08:17:53;;;;;;;19.65;12.93;;;14.50;77.30;;;;;;5074524;28;20033;-80
2022/03/17 08:20:20;;;;;;;18.90;12.30;;;14.60;77.20;;;;;;5063237;28;20028;-83
2022/03/17 08:22:46;;;;;;;21.85;13.10;;;14.70;76.20;;;;;;5073407;28;20028;-68
2022/03/17 08:25:11;;;;;;;23.40;12.63;;;14.80;75.90;;;;;;5073465;28;20420;-69
2022/03/17 08:27:38;;;;;;;18.35;11.95;;;14.80;75.80;;;;;;5073492;28;20107;-68
2022/03/17 08:30:05;;;;;;;19.70;12.75;;;14.80;75.30;;;;;;5073026;28;20036;-67
2022/03/17 08:32:31;;;;;;;19.60;11.85;;;14.90;74.80;;;;;;5071934;28;20035;-65
2022/03/17 08:34:56;;;;;;;22.75;11.82;;;14.90;74.30;;;;;;5073131;28;20024;-66
2022/03/17 08:37:23;;;;;;;19.52;12.45;;;15.00;73.90;;;;;;5073148;28;20021;-66
2022/03/17 08:39:49;;;;;;;17.67;11.85;;;15.10;73.70;;;;;;5071776;28;20077;-66
2022/03/17 08:42:15;;;;;;;18.42;12.30;;;15.20;73.20;;;;;;5073097;28;20434;-70
2022/03/17 08:44:41;;;;;;;16.88;11.57;;;15.30;72.40;;;;;;5073436;28;20139;-66
2022/03/17 08:49:52;;;;;;;19.10;11.85;;;15.40;72.20;;;;;;5073133;28;20097;-66
2022/03/17 08:52:19;;;;;;;17.42;10.65;;;15.50;71.50;;;;;;5073233;28;20404;-66
2022/03/17 08:54:45;;;;;;;20.73;11.55;;;15.70;70.40;;;;;;5072690;28;20067;-68
2022/03/17 08:57:12;;;;;;;24.35;11.65;;;15.80;69.60;;;;;;5071404;28;20123;-66
2022/03/17 08:59:38;;;;;;;17.67;10.90;;;15.80;68.80;;;;;;5073217;28;20051;-66
2022/03/17 09:02:07;;;;;;;20.98;11.27;;;15.90;69.10;;;;;;5073512;28;20029;-65
2022/03/17 09:04:33;;;;;;;17.20;11.40;;;16.00;68.30;;;;;;5073195;28;20397;-66
2022/03/17 09:07:00;;;;;;;20.35;12.30;;;16.00;67.80;;;;;;5072803;28;20438;-66
2022/03/17 09:09:27;;;;;;;15.57;11.23;;;16.10;67.80;;;;;;5072461;28;20131;-65
2022/03/17 09:11:54;;;;;;;27.17;11.35;;;16.20;67.70;;;;;;5072467;28;20427;-67
2022/03/17 09:14:21;;;;;;;31.67;12.15;;;16.30;66.90;;;;;;5072520;28;20017;-66
2022/03/17 09:16:48;;;;;;;20.08;11.77;;;16.30;66.60;;;;;;5071180;28;20371;-66
2022/03/17 09:19:14;;;;;;;16.65;10.70;;;16.50;66.50;;;;;;5072489;28;20100;-68
2022/03/17 09:21:41;;;;;;;18.35;12.07;;;16.60;66.50;;;;;;5074274;28;20116;-69
2022/03/17 09:24:07;;;;;;;17.48;11.38;;;16.70;66.10;;;;;;5074729;28;20454;-66
2022/03/17 09:26:33;;;;;;;18.02;10.90;;;16.70;65.50;;;;;;5075088;28;20032;-65
2022/03/17 09:28:59;;;;;;;18.80;11.35;;;16.70;65.60;;;;;;5073459;28;20381;-66
2022/03/17 09:31:27;;;;;;;16.15;10.68;;;16.80;65.20;;;;;;5072566;28;20024;-77
2022/03/17 09:33:53;;;;;;;18.33;11.13;;;16.80;64.70;;;;;;5073852;28;20047;-79
2022/03/17 09:36:22;;;;;;;16.15;10.75;;;16.80;64.50;;;;;;5073091;28;20039;-76
2022/03/17 09:41:35;;;;;;;19.50;11.45;;;16.90;64.10;;;;;;5073515;28;20036;-76
2022/03/17 09:44:07;;;;;;;16.45;10.65;;;17.10;64.10;;;;;;5072646;28;20048;-75
2022/03/17 09:46:35;;;;;;;24.33;11.30;;;17.20;63.10;;;;;;5072394;28;20036;-76
2022/03/17 09:49:04;;;;;;;22.58;11.23;;;17.30;63.40;;;;;;5072690;28;20082;-78
2022/03/17 09:51:34;;;;;;;22.05;11.18;;;17.40;62.40;;;;;;5075124;28;20060;-80
2022/03/17 09:54:00;;;;;;;20.63;10.82;;;17.50;62.10;;;;;;5071500;28;20032;-78
2022/03/17 09:56:28;;;;;;;17.92;10.30;;;17.60;61.40;;;;;;5072618;28;20078;-80
2022/03/17 09:58:57;;;;;;;17.05;9.95;;;17.70;61.00;;;;;;5072114;28;20041;-81
2022/03/17 10:01:28;;;;;;;17.20;9.48;;;17.80;60.80;;;;;;5071399;28;20393;-80
2022/03/17 10:03:59;;;;;;;16.65;10.20;;;17.90;59.90;;;;;;5072356;28;20029;-78
2022/03/17 10:06:29;;;;;;;16.95;10.38;;;18.00;60.70;;;;;;5072774;28;20035;-78
2022/03/17 10:08:57;;;;;;;15.38;10.15;;;18.20;59.80;;;;;;5074941;28;20027;-77
2022/03/17 10:11:31;;;;;;;20.15;9.93;;;18.30;58.80;;;;;;5075657;28;20500;-78
2022/03/17 10:13:57;;;;;;;;;;;18.40;58.20;;;;;;5075886;28;20032;-70
2022/03/17 10:16:24;;;;;;;17.08;9.27;;;18.50;57.40;;;;;;5075685;28;19904;-69
2022/03/17 10:18:59;;;;;;;16.88;9.90;;;18.60;58.00;;;;;;5075378;28;20493;-68
2022/03/17 10:21:28;;;;;;;23.60;10.18;;;18.70;57.50;;;;;;5074048;28;20028;-76
2022/03/17 10:24:02;;;;;;;20.60;10.00;;;18.80;56.80;;;;;;5075519;28;20113;-69
2022/03/17 10:26:40;;;;;;;16.83;9.40;;;18.90;56.50;;;;;;5075419;28;20025;-75
2022/03/17 10:29:20;;;;;;;17.38;8.82;;;19.10;55.80;;;;;;5075529;28;20076;-71
2022/03/17 10:32:11;;;;;;;14.90;9.13;;;19.20;55.30;;;;;;5075303;28;20032;-70
2022/03/17 10:34:48;;;;;;;20.08;9.40;;;19.40;54.80;;;;;;5075388;28;20032;-73
2022/03/17 10:37:24;;;;;;;16.15;9.90;;;19.40;54.20;;;;;;5075204;28;20146;-77
2022/03/17 10:39:59;;;;;;;17.67;9.25;;;19.40;55.70;;;;;;5075198;28;20025;-76
2022/03/17 10:42:29;;;;;;;16.55;9.15;;;19.40;55.60;;;;;;5075046;28;20494;-70
2022/03/17 10:45:05;;;;;;;15.68;9.10;;;19.50;56.00;;;;;;5075546;28;20111;-74
2022/03/17 10:47:42;;;;;;;19.05;9.18;;;19.50;56.30;;;;;;5075271;28;20511;-75
2022/03/17 10:50:08;;;;;;;15.52;8.88;;;19.60;54.30;;;;;;5075056;28;20028;-72
2022/03/17 10:52:57;;;;;;;15.30;9.77;;;19.70;55.10;;;;;;5073874;28;20496;-69
2022/03/17 10:55:29;;;;;;;14.88;8.48;;;19.80;53.80;;;;;;5075096;28;20028;-68
2022/03/17 10:57:59;;;;;;;14.60;8.60;;;19.90;53.50;;;;;;5074964;28;20043;-70
2022/03/17 11:00:26;;;;;;;12.32;8.35;;;19.90;54.10;;;;;;5074855;28;20190;-77
2022/03/17 11:02:58;;;;;;;15.93;8.43;;;19.90;54.10;;;;;;5074824;28;20486;-75
2022/03/17 11:05:27;;;;;;;16.17;9.25;;;19.90;53.90;;;;;;5074586;28;20479;-76
2022/03/17 11:07:55;;;;;;;19.83;9.35;;;20.00;53.60;;;;;;5073578;28;20489;-70
2022/03/17 11:10:22;;;;;;;14.15;8.38;;;20.10;53.80;;;;;;5074469;28;20020;-69
2022/03/17 11:12:50;;;;;;;20.00;9.75;;;20.30;53.20;;;;;;5073369;28;20035;-69
2022/03/17 11:15:25;;;;;;;19.73;9.55;;;20.30;52.80;;;;;;5073167;28;20025;-69
2022/03/17 11:17:51;;;;;;;17.30;9.13;;;20.40;53.10;;;;;;5073821;28;20035;-75
2022/03/17 11:20:22;;;;;;;13.40;8.65;;;20.40;52.70;;;;;;5072971;28;20375;-69
2022/03/17 11:23:09;;;;;;;14.60;8.55;;;20.40;52.50;;;;;;5074323;28;20081;-73
2022/03/17 11:25:36;;;;;;;10.88;8.13;;;20.40;51.20;;;;;;5073976;28;20025;-73
2022/03/17 11:28:03;;;;;;;14.88;8.65;;;20.50;52.20;;;;;;5074096;28;20104;-71
2022/03/17 11:30:40;;;;;;;14.52;8.55;;;20.50;51.90;;;;;;5074376;28;20024;-71
2022/03/17 11:33:21;;;;;;;11.95;7.40;;;20.60;51.90;;;;;;5074287;28;20086;-78
2022/03/17 11:35:53;;;;;;;17.30;9.23;;;20.70;51.40;;;;;;5073993;28;20017;-68
2022/03/17 11:38:24;;;;;;;13.48;8.38;;;20.90;51.00;;;;;;5073779;28;20103;-73
2022/03/17 11:41:10;;;;;;;13.55;8.00;;;21.00;50.30;;;;;;5074109;28;20029;-73
2022/03/17 11:43:45;;;;;;;16.58;7.53;;;21.00;49.10;;;;;;5074182;28;20040;-77
2022/03/17 11:46:14;;;;;;;12.80;7.50;;;21.00;48.60;;;;;;5073656;28;20024;-76
2022/03/17 11:48:41;;;;;;;15.05;8.30;;;20.90;49.00;;;;;;5072352;28;20064;-74
2022/03/17 11:51:09;;;;;;;15.15;7.88;;;20.90;48.60;;;;;;5073824;28;20514;-75
2022/03/17 11:53:43;;;;;;;20.13;8.20;;;20.90;48.60;;;;;;5074148;28;20024;-76
2022/03/17 11:56:10;;;;;;;14.95;8.07;;;20.90;48.00;;;;;;5073823;28;20450;-76
2022/03/17 11:58:46;;;;;;;15.68;8.93;;;21.00;48.80;;;;;;5073678;28;20128;-77
2022/03/17 12:01:25;;;;;;;16.42;8.13;;;21.00;48.00;;;;;;5072659;28;20020;-72
2022/03/17 12:04:02;;;;;;;25.60;9.02;;;20.90;47.90;;;;;;5073659;28;20037;-77
2022/03/17 12:06:29;;;;;;;74.35;14.60;;;20.90;47.60;;;;;;5073670;28;20359;-73
2022/03/17 12:09:06;;;;;;;50.65;11.57;;;21.00;48.80;;;;;;5073643;28;20064;-71
2022/03/17 12:11:39;;;;;;;24.65;8.52;;;20.90;47.50;;;;;;5073669;28;20042;-76
2022/03/17 12:14:23;;;;;;;13.20;7.47;;;20.80;48.40;;;;;;5073615;28;20367;-74
2022/03/17 12:16:59;;;;;;;14.70;7.68;;;20.80;47.90;;;;;;5073797;28;20367;-81
2022/03/17 12:19:32;;;;;;;15.07;8.35;;;20.80;47.40;;;;;;5072098;28;20090;-77
2022/03/17 12:21:58;;;;;;;18.23;8.63;;;20.90;48.70;;;;;;5071792;28;20025;-72
2022/03/17 12:24:40;;;;;;;11.75;7.95;;;21.00;48.30;;;;;;5073046;28;20032;-73
2022/03/17 12:27:33;;;;;;;13.52;7.93;;;21.00;47.80;;;;;;5072841;28;20044;-74
2022/03/17 12:30:05;;;;;;;14.50;7.85;;;21.10;47.20;;;;;;5072364;28;20032;-71
2022/03/17 12:32:46;;;;;;;13.98;7.57;;;21.10;47.10;;;;;;5073157;28;20021;-74
2022/03/17 12:35:12;;;;;;;15.77;8.05;;;21.20;47.50;;;;;;5073096;28;20032;-70
2022/03/17 12:37:41;;;;;;;11.05;7.90;;;21.20;47.60;;;;;;5073045;28;20093;-69
2022/03/17 12:40:11;;;;;;;13.32;7.80;;;21.20;47.10;;;;;;5073046;28;20115;-68
2022/03/17 12:42:40;;;;;;;13.48;8.00;;;21.20;47.20;;;;;;5073156;28;20058;-69
2022/03/17 12:45:11;;;;;;;11.75;6.85;;;21.30;47.20;;;;;;5073175;28;20040;-68
2022/03/17 12:47:41;;;;;;;11.05;6.75;;;21.30;45.70;;;;;;5072893;28;20465;-72